sensor_id;sensor_type;location;lat;lon;timestamp;temperature;humidity
48264;DHT22;34086;51.076;13.722;2023-03-07T00:00:03;2.30;99.90
48264;DHT22;34086;51.076;13.722;2023-03-07T00:01:05;2.40;99.90
48264;DHT22;34086;51.076;13.722;2023-03-07T00:02:06;2.30;99.90
48264;DHT22;34086;51.076;13.722;2023-03-07T00:03:07;2.40;99.90
48264;DHT22;34086;51.076;13.722;2023-03-07T00:04:08;2.40;99.90
48264;DHT22;34086;51.076;13.722;2023-03-07T00:05:09;2.40;99.90
48264;DHT22;34086;51.076;13.722;2023-03-07T00:06:09;2.40;99.90
48264;DHT22;34086;51.076;13.722;2023-03-07T00:07:11;2.40;99.90
48264;DHT22;34086;51.076;13.722;2023-03-07T00:08:11;2.40;99.90
48264;DHT22;34086;51.076;13.722;2023-03-07T00:09:12;2.40;99.90
48264;DHT22;34086;51.076;13.722;2023-03-07T00:10:13;2.40;99.90
48264;DHT22;34086;51.076;13.722;2023-03-07T00:11:13;2.40;99.90
48264;DHT22;34086;51.076;13.722;2023-03-07T00:12:14;2.50;99.90
48264;DHT22;34086;51.076;13.722;2023-03-07T00:13:14;2.50;99.90
48264;DHT22;34086;51.076;13.722;2023-03-07T00:14:15;2.50;99.90
48264;DHT22;34086;51.076;13.722;2023-03-07T00:15:16;2.50;99.90
48264;DHT22;34086;51.076;13.722;2023-03-07T00:16:19;2.50;99.90
48264;DHT22;34086;51.076;13.722;2023-03-07T00:17:20;2.50;99.90
48264;DHT22;34086;51.076;13.722;2023-03-07T00:18:21;2.50;99.90
48264;DHT22;34086;51.076;13.722;2023-03-07T00:19:21;2.50;99.90
48264;DHT22;34086;51.076;13.722;2023-03-07T00:20:22;2.50;99.90
48264;DHT22;34086;51.076;13.722;2023-03-07T00:21:23;2.50;99.90
48264;DHT22;34086;51.076;13.722;2023-03-07T00:22:23;2.50;99.90
48264;DHT22;34086;51.076;13.722;2023-03-07T00:23:24;2.50;99.90
48264;DHT22;34086;51.076;13.722;2023-03-07T00:24:25;2.50;99.90
48264;DHT22;34086;51.076;13.722;2023-03-07T00:25:25;2.50;99.90
48264;DHT22;34086;51.076;13.722;2023-03-07T00:26:26;2.50;99.90
48264;DHT22;34086;51.076;13.722;2023-03-07T00:27:29;2.50;99.90
48264;DHT22;34086;51.076;13.722;2023-03-07T00:28:30;2.50;99.90
48264;DHT22;34086;51.076;13.722;2023-03-07T00:29:30;2.50;99.90
48264;DHT22;34086;51.076;13.722;2023-03-07T00:30:31;2.50;99.90
48264;DHT22;34086;51.076;13.722;2023-03-07T00:31:32;2.50;99.90
48264;DHT22;34086;51.076;13.722;2023-03-07T00:32:32;2.50;99.90
48264;DHT22;34086;51.076;13.722;2023-03-07T00:33:34;2.60;99.90
48264;DHT22;34086;51.076;13.722;2023-03-07T00:34:34;2.50;99.90
48264;DHT22;34086;51.076;13.722;2023-03-07T00:35:35;2.50;99.90
48264;DHT22;34086;51.076;13.722;2023-03-07T00:36:35;2.60;99.90
48264;DHT22;34086;51.076;13.722;2023-03-07T00:37:36;2.60;99.90
48264;DHT22;34086;51.076;13.722;2023-03-07T00:38:37;2.60;99.90
48264;DHT22;34086;51.076;13.722;2023-03-07T00:39:37;2.60;99.90
48264;DHT22;34086;51.076;13.722;2023-03-07T00:40:38;2.60;99.90
48264;DHT22;34086;51.076;13.722;2023-03-07T00:41:38;2.60;99.90
48264;DHT22;34086;51.076;13.722;2023-03-07T00:42:39;2.60;99.90
48264;DHT22;34086;51.076;13.722;2023-03-07T00:43:40;2.60;99.90
48264;DHT22;34086;51.076;13.722;2023-03-07T00:44:41;2.60;99.90
48264;DHT22;34086;51.076;13.722;2023-03-07T00:45:41;2.60;99.90
48264;DHT22;34086;51.076;13.722;2023-03-07T00:46:42;2.60;99.90
48264;DHT22;34086;51.076;13.722;2023-03-07T00:47:42;2.60;99.90
48264;DHT22;34086;51.076;13.722;2023-03-07T00:48:43;2.60;99.90
48264;DHT22;34086;51.076;13.722;2023-03-07T00:49:45;2.60;99.90
48264;DHT22;34086;51.076;13.722;2023-03-07T00:50:47;2.60;99.90
48264;DHT22;34086;51.076;13.722;2023-03-07T00:51:48;2.60;99.90
48264;DHT22;34086;51.076;13.722;2023-03-07T00:52:49;2.60;99.90
48264;DHT22;34086;51.076;13.722;2023-03-07T00:53:50;2.60;99.90
48264;DHT22;34086;51.076;13.722;2023-03-07T00:54:51;2.60;99.90
48264;DHT22;34086;51.076;13.722;2023-03-07T00:55:57;2.60;99.90
48264;DHT22;34086;51.076;13.722;2023-03-07T00:56:57;2.60;99.90
48264;DHT22;34086;51.076;13.722;2023-03-07T00:57:58;2.60;99.90
48264;DHT22;34086;51.076;13.722;2023-03-07T00:58:59;2.60;99.90
48264;DHT22;34086;51.076;13.722;2023-03-07T00:59:59;2.60;99.90
48264;DHT22;34086;51.076;13.722;2023-03-07T01:01:01;2.60;99.90
48264;DHT22;34086;51.076;13.722;2023-03-07T01:02:02;2.60;99.90
48264;DHT22;34086;51.076;13.722;2023-03-07T01:03:02;2.60;99.90
48264;DHT22;34086;51.076;13.722;2023-03-07T01:04:04;2.60;99.90
48264;DHT22;34086;51.076;13.722;2023-03-07T01:05:05;2.60;99.90
48264;DHT22;34086;51.076;13.722;2023-03-07T01:06:08;2.60;99.90
48264;DHT22;34086;51.076;13.722;2023-03-07T01:07:09;2.60;99.90
48264;DHT22;34086;51.076;13.722;2023-03-07T01:08:09;2.60;99.90
48264;DHT22;34086;51.076;13.722;2023-03-07T01:09:10;2.50;99.90
48264;DHT22;34086;51.076;13.722;2023-03-07T01:10:11;2.50;99.90
48264;DHT22;34086;51.076;13.722;2023-03-07T01:11:12;2.60;99.90
48264;DHT22;34086;51.076;13.722;2023-03-07T01:12:12;2.60;99.90
48264;DHT22;34086;51.076;13.722;2023-03-07T01:13:14;2.60;99.90
48264;DHT22;34086;51.076;13.722;2023-03-07T01:14:14;2.60;99.90
48264;DHT22;34086;51.076;13.722;2023-03-07T01:15:15;2.60;99.90
48264;DHT22;34086;51.076;13.722;2023-03-07T01:17:17;2.60;99.90
48264;DHT22;34086;51.076;13.722;2023-03-07T01:18:19;2.60;99.90
48264;DHT22;34086;51.076;13.722;2023-03-07T01:19:20;2.60;99.90
48264;DHT22;34086;51.076;13.722;2023-03-07T01:20:21;2.60;99.90
48264;DHT22;34086;51.076;13.722;2023-03-07T01:21:33;2.60;99.90
48264;DHT22;34086;51.076;13.722;2023-03-07T01:22:36;2.60;99.90
48264;DHT22;34086;51.076;13.722;2023-03-07T01:23:39;2.60;99.90
48264;DHT22;34086;51.076;13.722;2023-03-07T01:24:40;2.60;99.90
48264;DHT22;34086;51.076;13.722;2023-03-07T01:25:41;2.60;99.90
48264;DHT22;34086;51.076;13.722;2023-03-07T01:26:43;2.60;99.90
48264;DHT22;34086;51.076;13.722;2023-03-07T01:27:44;2.60;99.90
48264;DHT22;34086;51.076;13.722;2023-03-07T01:28:45;2.60;99.90
48264;DHT22;34086;51.076;13.722;2023-03-07T01:29:46;2.60;99.90
48264;DHT22;34086;51.076;13.722;2023-03-07T01:30:58;2.60;99.90
48264;DHT22;34086;51.076;13.722;2023-03-07T01:31:59;2.60;99.90
48264;DHT22;34086;51.076;13.722;2023-03-07T01:33:01;2.60;99.90
48264;DHT22;34086;51.076;13.722;2023-03-07T01:34:03;2.70;99.90
48264;DHT22;34086;51.076;13.722;2023-03-07T01:35:07;2.70;99.90
48264;DHT22;34086;51.076;13.722;2023-03-07T01:36:35;2.70;99.90
48264;DHT22;34086;51.076;13.722;2023-03-07T01:37:37;2.70;99.90
48264;DHT22;34086;51.076;13.722;2023-03-07T01:38:40;2.70;99.90
48264;DHT22;34086;51.076;13.722;2023-03-07T01:39:41;2.70;99.90
48264;DHT22;34086;51.076;13.722;2023-03-07T01:40:44;2.70;99.90
48264;DHT22;34086;51.076;13.722;2023-03-07T01:41:45;2.70;99.90
48264;DHT22;34086;51.076;13.722;2023-03-07T01:42:47;2.70;99.90
48264;DHT22;34086;51.076;13.722;2023-03-07T01:43:49;2.70;99.90
48264;DHT22;34086;51.076;13.722;2023-03-07T01:45:05;2.70;99.90
48264;DHT22;34086;51.076;13.722;2023-03-07T01:47:52;2.70;99.90
48264;DHT22;34086;51.076;13.722;2023-03-07T01:49:02;2.70;99.90
48264;DHT22;34086;51.076;13.722;2023-03-07T01:50:12;2.60;99.90
48264;DHT22;34086;51.076;13.722;2023-03-07T01:51:14;2.60;99.90
48264;DHT22;34086;51.076;13.722;2023-03-07T01:52:25;2.60;99.90
48264;DHT22;34086;51.076;13.722;2023-03-07T01:53:31;2.60;99.90
48264;DHT22;34086;51.076;13.722;2023-03-07T01:54:33;2.60;99.90
48264;DHT22;34086;51.076;13.722;2023-03-07T01:55:35;2.60;99.90
48264;DHT22;34086;51.076;13.722;2023-03-07T01:56:52;2.50;99.90
48264;DHT22;34086;51.076;13.722;2023-03-07T01:57:54;2.50;99.90
48264;DHT22;34086;51.076;13.722;2023-03-07T01:58:56;2.50;99.90
48264;DHT22;34086;51.076;13.722;2023-03-07T01:59:58;2.50;99.90
48264;DHT22;34086;51.076;13.722;2023-03-07T02:01:00;2.50;99.90
48264;DHT22;34086;51.076;13.722;2023-03-07T02:02:08;2.40;99.90
48264;DHT22;34086;51.076;13.722;2023-03-07T02:03:36;2.40;99.90
48264;DHT22;34086;51.076;13.722;2023-03-07T02:05:03;2.40;99.90
48264;DHT22;34086;51.076;13.722;2023-03-07T02:06:08;2.40;99.90
48264;DHT22;34086;51.076;13.722;2023-03-07T02:07:10;2.30;99.90
48264;DHT22;34086;51.076;13.722;2023-03-07T02:08:13;2.30;99.90
48264;DHT22;34086;51.076;13.722;2023-03-07T02:09:17;2.30;99.90
48264;DHT22;34086;51.076;13.722;2023-03-07T02:10:21;2.30;99.90
48264;DHT22;34086;51.076;13.722;2023-03-07T02:11:23;2.30;99.90
48264;DHT22;34086;51.076;13.722;2023-03-07T02:12:23;2.30;99.90
48264;DHT22;34086;51.076;13.722;2023-03-07T02:13:24;2.30;99.90
48264;DHT22;34086;51.076;13.722;2023-03-07T02:14:25;2.30;99.90
48264;DHT22;34086;51.076;13.722;2023-03-07T02:15:26;2.30;99.90
48264;DHT22;34086;51.076;13.722;2023-03-07T02:16:26;2.30;99.90
48264;DHT22;34086;51.076;13.722;2023-03-07T02:17:27;2.30;99.90
48264;DHT22;34086;51.076;13.722;2023-03-07T02:18:31;2.30;99.90
48264;DHT22;34086;51.076;13.722;2023-03-07T02:22:11;2.30;99.90
48264;DHT22;34086;51.076;13.722;2023-03-07T02:24:30;2.40;99.90
48264;DHT22;34086;51.076;13.722;2023-03-07T02:25:43;2.40;99.90
48264;DHT22;34086;51.076;13.722;2023-03-07T02:26:47;2.40;99.90
48264;DHT22;34086;51.076;13.722;2023-03-07T02:27:50;2.40;99.90
48264;DHT22;34086;51.076;13.722;2023-03-07T02:28:53;2.40;99.90
48264;DHT22;34086;51.076;13.722;2023-03-07T02:29:54;2.40;99.90
48264;DHT22;34086;51.076;13.722;2023-03-07T02:30:58;2.40;99.90
48264;DHT22;34086;51.076;13.722;2023-03-07T02:32:00;2.50;99.90
48264;DHT22;34086;51.076;13.722;2023-03-07T02:33:00;2.50;99.90
48264;DHT22;34086;51.076;13.722;2023-03-07T02:34:01;2.50;99.90
48264;DHT22;34086;51.076;13.722;2023-03-07T02:35:15;2.60;99.90
48264;DHT22;34086;51.076;13.722;2023-03-07T02:36:32;2.50;99.90
48264;DHT22;34086;51.076;13.722;2023-03-07T02:38:02;2.60;99.90
48264;DHT22;34086;51.076;13.722;2023-03-07T02:39:04;2.60;99.90
48264;DHT22;34086;51.076;13.722;2023-03-07T02:40:09;2.60;99.90
48264;DHT22;34086;51.076;13.722;2023-03-07T02:41:12;2.60;99.90
48264;DHT22;34086;51.076;13.722;2023-03-07T02:42:22;2.60;99.90
48264;DHT22;34086;51.076;13.722;2023-03-07T02:43:30;2.70;99.90
48264;DHT22;34086;51.076;13.722;2023-03-07T02:44:31;2.70;99.90
48264;DHT22;34086;51.076;13.722;2023-03-07T02:45:31;2.70;99.90
48264;DHT22;34086;51.076;13.722;2023-03-07T02:46:32;2.70;99.90
48264;DHT22;34086;51.076;13.722;2023-03-07T02:47:32;2.70;99.90
48264;DHT22;34086;51.076;13.722;2023-03-07T02:48:33;2.70;99.90
48264;DHT22;34086;51.076;13.722;2023-03-07T02:49:34;2.70;99.90
48264;DHT22;34086;51.076;13.722;2023-03-07T02:50:36;2.70;99.90
48264;DHT22;34086;51.076;13.722;2023-03-07T02:51:37;2.80;99.90
48264;DHT22;34086;51.076;13.722;2023-03-07T02:52:38;2.70;99.90
48264;DHT22;34086;51.076;13.722;2023-03-07T02:53:39;2.80;99.90
48264;DHT22;34086;51.076;13.722;2023-03-07T02:54:39;2.80;99.90
48264;DHT22;34086;51.076;13.722;2023-03-07T02:55:40;2.80;99.90
48264;DHT22;34086;51.076;13.722;2023-03-07T02:56:41;2.80;99.90
48264;DHT22;34086;51.076;13.722;2023-03-07T02:57:42;2.80;99.90
48264;DHT22;34086;51.076;13.722;2023-03-07T02:58:42;2.70;99.90
48264;DHT22;34086;51.076;13.722;2023-03-07T02:59:44;2.70;99.90
48264;DHT22;34086;51.076;13.722;2023-03-07T03:00:44;2.70;99.90
48264;DHT22;34086;51.076;13.722;2023-03-07T03:01:45;2.70;99.90
48264;DHT22;34086;51.076;13.722;2023-03-07T03:02:46;2.70;99.90
48264;DHT22;34086;51.076;13.722;2023-03-07T03:03:46;2.70;99.90
48264;DHT22;34086;51.076;13.722;2023-03-07T03:04:48;2.70;99.90
48264;DHT22;34086;51.076;13.722;2023-03-07T03:05:48;2.60;99.90
48264;DHT22;34086;51.076;13.722;2023-03-07T03:06:49;2.60;99.90
48264;DHT22;34086;51.076;13.722;2023-03-07T03:07:50;2.60;99.90
48264;DHT22;34086;51.076;13.722;2023-03-07T03:08:51;2.60;99.90
48264;DHT22;34086;51.076;13.722;2023-03-07T03:09:51;2.60;99.90
48264;DHT22;34086;51.076;13.722;2023-03-07T03:10:53;2.60;99.90
48264;DHT22;34086;51.076;13.722;2023-03-07T03:11:55;2.50;99.90
48264;DHT22;34086;51.076;13.722;2023-03-07T03:12:58;2.50;99.90
48264;DHT22;34086;51.076;13.722;2023-03-07T03:13:59;2.50;99.90
48264;DHT22;34086;51.076;13.722;2023-03-07T03:15:02;2.50;99.90
48264;DHT22;34086;51.076;13.722;2023-03-07T03:16:03;2.50;99.90
48264;DHT22;34086;51.076;13.722;2023-03-07T03:17:04;2.50;99.90
48264;DHT22;34086;51.076;13.722;2023-03-07T03:18:04;2.50;99.90
48264;DHT22;34086;51.076;13.722;2023-03-07T03:19:06;2.50;99.90
48264;DHT22;34086;51.076;13.722;2023-03-07T03:20:07;2.50;99.90
48264;DHT22;34086;51.076;13.722;2023-03-07T03:21:12;2.40;99.90
48264;DHT22;34086;51.076;13.722;2023-03-07T03:22:13;2.50;99.90
48264;DHT22;34086;51.076;13.722;2023-03-07T03:23:17;2.50;99.90
48264;DHT22;34086;51.076;13.722;2023-03-07T03:24:18;2.40;99.90
48264;DHT22;34086;51.076;13.722;2023-03-07T03:25:20;2.40;99.90
48264;DHT22;34086;51.076;13.722;2023-03-07T03:26:23;2.40;99.90
48264;DHT22;34086;51.076;13.722;2023-03-07T03:27:23;2.50;99.90
48264;DHT22;34086;51.076;13.722;2023-03-07T03:28:25;2.50;99.90
48264;DHT22;34086;51.076;13.722;2023-03-07T03:29:26;2.50;99.90
48264;DHT22;34086;51.076;13.722;2023-03-07T03:30:30;2.50;99.90
48264;DHT22;34086;51.076;13.722;2023-03-07T03:31:34;2.50;99.90
48264;DHT22;34086;51.076;13.722;2023-03-07T03:32:38;2.50;99.90
48264;DHT22;34086;51.076;13.722;2023-03-07T03:33:41;2.50;99.90
48264;DHT22;34086;51.076;13.722;2023-03-07T03:34:43;2.50;99.90
48264;DHT22;34086;51.076;13.722;2023-03-07T03:35:44;2.50;99.90
48264;DHT22;34086;51.076;13.722;2023-03-07T03:36:44;2.50;99.90
48264;DHT22;34086;51.076;13.722;2023-03-07T03:37:45;2.50;99.90
48264;DHT22;34086;51.076;13.722;2023-03-07T03:38:46;2.40;99.90
48264;DHT22;34086;51.076;13.722;2023-03-07T03:39:47;2.50;99.90
48264;DHT22;34086;51.076;13.722;2023-03-07T03:40:47;2.50;99.90
48264;DHT22;34086;51.076;13.722;2023-03-07T03:41:50;2.40;99.90
48264;DHT22;34086;51.076;13.722;2023-03-07T03:42:54;2.50;99.90
48264;DHT22;34086;51.076;13.722;2023-03-07T03:43:55;2.40;99.90
48264;DHT22;34086;51.076;13.722;2023-03-07T03:44:57;2.40;99.90
48264;DHT22;34086;51.076;13.722;2023-03-07T03:45:58;2.40;99.90
48264;DHT22;34086;51.076;13.722;2023-03-07T03:47:00;2.50;99.90
48264;DHT22;34086;51.076;13.722;2023-03-07T03:48:01;2.40;99.90
48264;DHT22;34086;51.076;13.722;2023-03-07T03:49:02;2.40;99.90
48264;DHT22;34086;51.076;13.722;2023-03-07T03:50:03;2.50;99.90
48264;DHT22;34086;51.076;13.722;2023-03-07T03:51:07;2.50;99.90
48264;DHT22;34086;51.076;13.722;2023-03-07T03:52:08;2.40;99.90
48264;DHT22;34086;51.076;13.722;2023-03-07T03:53:09;2.40;99.90
48264;DHT22;34086;51.076;13.722;2023-03-07T03:54:10;2.40;99.90
48264;DHT22;34086;51.076;13.722;2023-03-07T03:55:11;2.40;99.90
48264;DHT22;34086;51.076;13.722;2023-03-07T03:56:14;2.40;99.90
48264;DHT22;34086;51.076;13.722;2023-03-07T03:57:15;2.40;99.90
48264;DHT22;34086;51.076;13.722;2023-03-07T03:58:18;2.40;99.90
48264;DHT22;34086;51.076;13.722;2023-03-07T03:59:18;2.30;99.90
48264;DHT22;34086;51.076;13.722;2023-03-07T04:00:20;2.30;99.90
48264;DHT22;34086;51.076;13.722;2023-03-07T04:01:22;2.30;99.90
48264;DHT22;34086;51.076;13.722;2023-03-07T04:02:23;2.30;99.90
48264;DHT22;34086;51.076;13.722;2023-03-07T04:03:25;2.30;99.90
48264;DHT22;34086;51.076;13.722;2023-03-07T04:04:25;2.30;99.90
48264;DHT22;34086;51.076;13.722;2023-03-07T04:05:26;2.30;99.90
48264;DHT22;34086;51.076;13.722;2023-03-07T04:06:31;2.40;99.90
48264;DHT22;34086;51.076;13.722;2023-03-07T04:07:32;2.40;99.90
48264;DHT22;34086;51.076;13.722;2023-03-07T04:08:34;2.40;99.90
48264;DHT22;34086;51.076;13.722;2023-03-07T04:09:34;2.40;99.90
48264;DHT22;34086;51.076;13.722;2023-03-07T04:10:35;2.40;99.90
48264;DHT22;34086;51.076;13.722;2023-03-07T04:11:36;2.40;99.90
48264;DHT22;34086;51.076;13.722;2023-03-07T04:12:36;2.40;99.90
48264;DHT22;34086;51.076;13.722;2023-03-07T04:13:38;2.40;99.90
48264;DHT22;34086;51.076;13.722;2023-03-07T04:14:38;2.40;99.90
48264;DHT22;34086;51.076;13.722;2023-03-07T04:15:39;2.40;99.90
48264;DHT22;34086;51.076;13.722;2023-03-07T04:16:39;2.30;99.90
48264;DHT22;34086;51.076;13.722;2023-03-07T04:17:40;2.30;99.90
48264;DHT22;34086;51.076;13.722;2023-03-07T04:18:41;2.20;99.90
48264;DHT22;34086;51.076;13.722;2023-03-07T04:19:42;2.20;99.90
48264;DHT22;34086;51.076;13.722;2023-03-07T04:20:44;2.20;99.90
48264;DHT22;34086;51.076;13.722;2023-03-07T04:21:44;2.20;99.90
48264;DHT22;34086;51.076;13.722;2023-03-07T04:22:48;2.20;99.90
48264;DHT22;34086;51.076;13.722;2023-03-07T04:23:50;2.10;99.90
48264;DHT22;34086;51.076;13.722;2023-03-07T04:24:55;2.10;99.90
48264;DHT22;34086;51.076;13.722;2023-03-07T04:25:58;2.10;99.90
48264;DHT22;34086;51.076;13.722;2023-03-07T04:27:00;2.10;99.90
48264;DHT22;34086;51.076;13.722;2023-03-07T04:28:01;2.10;99.90
48264;DHT22;34086;51.076;13.722;2023-03-07T04:29:03;2.10;99.90
48264;DHT22;34086;51.076;13.722;2023-03-07T04:30:14;2.10;99.90
48264;DHT22;34086;51.076;13.722;2023-03-07T04:31:18;2.10;99.90
48264;DHT22;34086;51.076;13.722;2023-03-07T04:32:19;2.10;99.90
48264;DHT22;34086;51.076;13.722;2023-03-07T04:33:20;2.20;99.90
48264;DHT22;34086;51.076;13.722;2023-03-07T04:34:22;2.20;99.90
48264;DHT22;34086;51.076;13.722;2023-03-07T04:35:23;2.30;99.90
48264;DHT22;34086;51.076;13.722;2023-03-07T04:36:23;2.30;99.90
48264;DHT22;34086;51.076;13.722;2023-03-07T04:37:25;2.30;99.90
48264;DHT22;34086;51.076;13.722;2023-03-07T04:38:26;2.40;99.90
48264;DHT22;34086;51.076;13.722;2023-03-07T04:39:26;2.40;99.90
48264;DHT22;34086;51.076;13.722;2023-03-07T04:40:27;2.40;99.90
48264;DHT22;34086;51.076;13.722;2023-03-07T04:41:27;2.40;99.90
48264;DHT22;34086;51.076;13.722;2023-03-07T04:42:45;2.50;99.90
48264;DHT22;34086;51.076;13.722;2023-03-07T04:43:46;2.40;99.90
48264;DHT22;34086;51.076;13.722;2023-03-07T04:44:47;2.50;99.90
48264;DHT22;34086;51.076;13.722;2023-03-07T04:45:48;2.50;99.90
48264;DHT22;34086;51.076;13.722;2023-03-07T04:46:48;2.50;99.90
48264;DHT22;34086;51.076;13.722;2023-03-07T04:47:50;2.50;99.90
48264;DHT22;34086;51.076;13.722;2023-03-07T04:48:50;2.50;99.90
48264;DHT22;34086;51.076;13.722;2023-03-07T04:49:52;2.50;99.90
48264;DHT22;34086;51.076;13.722;2023-03-07T04:50:53;2.40;99.90
48264;DHT22;34086;51.076;13.722;2023-03-07T04:51:54;2.40;99.90
48264;DHT22;34086;51.076;13.722;2023-03-07T04:52:55;2.50;99.90
48264;DHT22;34086;51.076;13.722;2023-03-07T04:53:55;2.50;99.90
48264;DHT22;34086;51.076;13.722;2023-03-07T04:54:56;2.40;99.90
48264;DHT22;34086;51.076;13.722;2023-03-07T04:55:58;2.50;99.90
48264;DHT22;34086;51.076;13.722;2023-03-07T04:56:59;2.40;99.90
48264;DHT22;34086;51.076;13.722;2023-03-07T04:57:59;2.50;99.90
48264;DHT22;34086;51.076;13.722;2023-03-07T04:59:00;2.40;99.90
48264;DHT22;34086;51.076;13.722;2023-03-07T05:00:02;2.40;99.90
48264;DHT22;34086;51.076;13.722;2023-03-07T05:01:03;2.40;99.90
48264;DHT22;34086;51.076;13.722;2023-03-07T05:02:08;2.40;99.90
48264;DHT22;34086;51.076;13.722;2023-03-07T05:03:12;2.40;99.90
48264;DHT22;34086;51.076;13.722;2023-03-07T05:04:13;2.40;99.90
48264;DHT22;34086;51.076;13.722;2023-03-07T05:05:13;2.40;99.90
48264;DHT22;34086;51.076;13.722;2023-03-07T05:06:16;2.40;99.90
48264;DHT22;34086;51.076;13.722;2023-03-07T05:07:22;2.40;99.90
48264;DHT22;34086;51.076;13.722;2023-03-07T05:08:24;2.50;99.90
48264;DHT22;34086;51.076;13.722;2023-03-07T05:09:25;2.50;99.90
48264;DHT22;34086;51.076;13.722;2023-03-07T05:10:25;2.50;99.90
48264;DHT22;34086;51.076;13.722;2023-03-07T05:11:26;2.50;99.90
48264;DHT22;34086;51.076;13.722;2023-03-07T05:12:27;2.50;99.90
48264;DHT22;34086;51.076;13.722;2023-03-07T05:13:29;2.50;99.90
48264;DHT22;34086;51.076;13.722;2023-03-07T05:14:29;2.50;99.90
48264;DHT22;34086;51.076;13.722;2023-03-07T05:15:30;2.50;99.90
48264;DHT22;34086;51.076;13.722;2023-03-07T05:16:30;2.60;99.90
48264;DHT22;34086;51.076;13.722;2023-03-07T05:17:32;2.60;99.90
48264;DHT22;34086;51.076;13.722;2023-03-07T05:18:33;2.60;99.90
48264;DHT22;34086;51.076;13.722;2023-03-07T05:19:34;2.60;99.90
48264;DHT22;34086;51.076;13.722;2023-03-07T05:20:35;2.60;99.90
48264;DHT22;34086;51.076;13.722;2023-03-07T05:21:35;2.60;99.90
48264;DHT22;34086;51.076;13.722;2023-03-07T05:22:39;2.70;99.90
48264;DHT22;34086;51.076;13.722;2023-03-07T05:23:39;2.70;99.90
48264;DHT22;34086;51.076;13.722;2023-03-07T05:24:42;2.70;99.90
48264;DHT22;34086;51.076;13.722;2023-03-07T05:25:42;2.70;99.90
48264;DHT22;34086;51.076;13.722;2023-03-07T05:26:43;2.70;99.90
48264;DHT22;34086;51.076;13.722;2023-03-07T05:27:43;2.70;99.90
48264;DHT22;34086;51.076;13.722;2023-03-07T05:28:44;2.70;99.90
48264;DHT22;34086;51.076;13.722;2023-03-07T05:29:44;2.70;99.90
48264;DHT22;34086;51.076;13.722;2023-03-07T05:30:46;2.70;99.90
48264;DHT22;34086;51.076;13.722;2023-03-07T05:31:46;2.70;99.90
48264;DHT22;34086;51.076;13.722;2023-03-07T05:32:47;2.70;99.90
48264;DHT22;34086;51.076;13.722;2023-03-07T05:33:49;2.80;99.90
48264;DHT22;34086;51.076;13.722;2023-03-07T05:34:49;2.80;99.90
48264;DHT22;34086;51.076;13.722;2023-03-07T05:35:53;2.80;99.90
48264;DHT22;34086;51.076;13.722;2023-03-07T05:36:56;2.70;99.90
48264;DHT22;34086;51.076;13.722;2023-03-07T05:37:59;2.80;99.90
48264;DHT22;34086;51.076;13.722;2023-03-07T05:39:00;2.80;99.90
48264;DHT22;34086;51.076;13.722;2023-03-07T05:40:02;2.80;99.90
48264;DHT22;34086;51.076;13.722;2023-03-07T05:41:07;2.80;99.90
48264;DHT22;34086;51.076;13.722;2023-03-07T05:42:08;2.80;99.90
48264;DHT22;34086;51.076;13.722;2023-03-07T05:43:10;2.80;99.90
48264;DHT22;34086;51.076;13.722;2023-03-07T05:44:11;2.80;99.90
48264;DHT22;34086;51.076;13.722;2023-03-07T05:45:11;2.80;99.90
48264;DHT22;34086;51.076;13.722;2023-03-07T05:46:13;2.90;99.90
48264;DHT22;34086;51.076;13.722;2023-03-07T05:47:14;2.90;99.90
48264;DHT22;34086;51.076;13.722;2023-03-07T05:48:14;2.90;99.90
48264;DHT22;34086;51.076;13.722;2023-03-07T05:49:15;2.90;99.90
48264;DHT22;34086;51.076;13.722;2023-03-07T05:50:16;2.90;99.90
48264;DHT22;34086;51.076;13.722;2023-03-07T05:51:18;2.90;99.90
48264;DHT22;34086;51.076;13.722;2023-03-07T05:52:19;3.00;99.90
48264;DHT22;34086;51.076;13.722;2023-03-07T05:53:20;3.00;99.90
48264;DHT22;34086;51.076;13.722;2023-03-07T05:54:21;3.00;99.90
48264;DHT22;34086;51.076;13.722;2023-03-07T05:55:22;3.00;99.90
48264;DHT22;34086;51.076;13.722;2023-03-07T05:56:23;3.00;99.90
48264;DHT22;34086;51.076;13.722;2023-03-07T05:57:24;3.00;99.90
48264;DHT22;34086;51.076;13.722;2023-03-07T05:58:24;3.10;99.90
48264;DHT22;34086;51.076;13.722;2023-03-07T05:59:25;3.10;99.90
48264;DHT22;34086;51.076;13.722;2023-03-07T06:00:26;3.10;99.90
48264;DHT22;34086;51.076;13.722;2023-03-07T06:01:31;3.10;99.90
48264;DHT22;34086;51.076;13.722;2023-03-07T06:02:32;3.10;99.90
48264;DHT22;34086;51.076;13.722;2023-03-07T06:03:32;3.10;99.90
48264;DHT22;34086;51.076;13.722;2023-03-07T06:04:33;3.20;99.90
48264;DHT22;34086;51.076;13.722;2023-03-07T06:05:33;3.20;99.90
48264;DHT22;34086;51.076;13.722;2023-03-07T06:06:35;3.20;99.90
48264;DHT22;34086;51.076;13.722;2023-03-07T06:07:36;3.20;99.90
48264;DHT22;34086;51.076;13.722;2023-03-07T06:08:37;3.20;99.90
48264;DHT22;34086;51.076;13.722;2023-03-07T06:09:37;3.20;99.90
48264;DHT22;34086;51.076;13.722;2023-03-07T06:10:39;3.20;99.90
48264;DHT22;34086;51.076;13.722;2023-03-07T06:11:40;3.20;99.90
48264;DHT22;34086;51.076;13.722;2023-03-07T06:12:40;3.20;99.90
48264;DHT22;34086;51.076;13.722;2023-03-07T06:13:41;3.20;99.90
48264;DHT22;34086;51.076;13.722;2023-03-07T06:14:41;3.20;99.90
48264;DHT22;34086;51.076;13.722;2023-03-07T06:15:42;3.30;99.90
48264;DHT22;34086;51.076;13.722;2023-03-07T06:16:43;3.30;99.90
48264;DHT22;34086;51.076;13.722;2023-03-07T06:17:44;3.30;99.90
48264;DHT22;34086;51.076;13.722;2023-03-07T06:18:44;3.30;99.90
48264;DHT22;34086;51.076;13.722;2023-03-07T06:19:45;3.30;99.90
48264;DHT22;34086;51.076;13.722;2023-03-07T06:21:05;3.30;99.90
48264;DHT22;34086;51.076;13.722;2023-03-07T06:22:10;3.30;99.90
48264;DHT22;34086;51.076;13.722;2023-03-07T06:23:11;3.30;99.90
48264;DHT22;34086;51.076;13.722;2023-03-07T06:24:12;3.40;99.90
48264;DHT22;34086;51.076;13.722;2023-03-07T06:25:13;3.30;99.90
48264;DHT22;34086;51.076;13.722;2023-03-07T06:26:15;3.40;99.90
48264;DHT22;34086;51.076;13.722;2023-03-07T06:27:18;3.40;99.90
48264;DHT22;34086;51.076;13.722;2023-03-07T06:28:22;3.40;99.90
48264;DHT22;34086;51.076;13.722;2023-03-07T06:29:23;3.40;99.90
48264;DHT22;34086;51.076;13.722;2023-03-07T06:30:23;3.40;99.90
48264;DHT22;34086;51.076;13.722;2023-03-07T06:31:24;3.40;99.90
48264;DHT22;34086;51.076;13.722;2023-03-07T06:32:25;3.50;99.90
48264;DHT22;34086;51.076;13.722;2023-03-07T06:33:25;3.50;99.90
48264;DHT22;34086;51.076;13.722;2023-03-07T06:34:26;3.50;99.90
48264;DHT22;34086;51.076;13.722;2023-03-07T06:35:27;3.40;99.90
48264;DHT22;34086;51.076;13.722;2023-03-07T06:36:28;3.50;99.90
48264;DHT22;34086;51.076;13.722;2023-03-07T06:37:32;3.50;99.90
48264;DHT22;34086;51.076;13.722;2023-03-07T06:38:35;3.50;99.90